Alpachiri, Argentina
Current Conditions -  °F | °C
As of 2:00 PM on Friday 21 Nov 2014 (Local Time) from SAZN Reporting Station
Broken Clouds Broken Clouds  
Wind Chill: 68°   Ceiling: 4500
Heat Index: 68°   Visibility: 6mi
Dew Point: 48°   Wind: 3mph
Humidity: 49%   Direction: 320°NW
Pressure: 30"   Gusts: NA
Location:  37.37°S, 63.77°W
Report Text: SAZN 211700Z 32003KT BKN045 SCT058 20/09 Q1016
Loading
Personal Weather Stations






























Interactive Weather Map New forecast layout! Learn more

10-Day Weather Forecast

Advertisements
Track Severe Weather on mobile